Time;durP1;ratioP1;P1;durP2;ratioP2;P2;SDS_P1;SDS_P2;PMS_P1;PMS_P2;Temp;Humidity;BMP_temperature;BMP_pressure;BME280_temperature;BME280_humidity;BME280_pressure;Samples;Min_cycle;Max_cycle;Signal;HPM_P1;HPM_P2
2022/10/19 00:01:12;;;;;;;87.90;30.17;;;;;;;6.89;71.07;100747.72;5089852;28;20032;-27
2022/10/19 00:03:38;;;;;;;79.82;31.95;;;;;;;7.20;70.27;100744.97;5108317;28;20036;-26
2022/10/19 00:06:14;;;;;;;53.53;23.00;;;;;;;7.06;72.34;100743.09;5107160;28;20587;-31
2022/10/19 00:08:39;;;;;;;96.70;36.55;;;;;;;6.89;73.08;100734.47;5107935;28;20020;-27
2022/10/19 00:11:05;;;;;;;53.97;22.30;;;;;;;6.60;73.11;100712.16;5107910;28;20076;-27
2022/10/19 00:13:30;;;;;;;59.17;24.98;;;;;;;6.46;73.21;100694.34;5108377;28;20073;-28
2022/10/19 00:15:56;;;;;;;58.53;23.63;;;;;;;6.99;71.51;100708.53;5108313;28;20035;-27
2022/10/19 00:18:21;;;;;;;48.28;27.55;;;;;;;6.71;72.39;100695.81;5108117;28;20491;-27
2022/10/19 00:20:47;;;;;;;56.35;26.60;;;;;;;6.56;73.15;100709.03;5107866;28;20031;-28
2022/10/19 00:23:12;;;;;;;58.80;26.85;;;;;;;6.62;72.50;100705.66;5089606;28;20030;-28
2022/10/19 00:25:38;;;;;;;62.83;30.05;;;;;;;6.71;72.77;100703.78;5089339;28;20046;-28
2022/10/19 00:28:03;;;;;;;57.45;27.02;;;;;;;7.00;72.35;100695.06;5108055;28;20488;-27
2022/10/19 00:30:29;;;;;;;71.85;29.13;;;;;;;6.84;71.84;100677.50;5107932;28;20565;-28
2022/10/19 00:32:54;;;;;;;67.93;33.22;;;;;;;6.78;72.48;100688.81;5107980;28;20572;-26
2022/10/19 00:35:19;;;;;;;68.93;31.20;;;;;;;6.78;73.09;100683.53;5107781;28;20028;-27
2022/10/19 00:37:45;;;;;;;59.70;27.58;;;;;;;6.42;72.15;100670.88;5108023;28;20039;-27
2022/10/19 00:40:10;;;;;;;56.40;23.52;;;;;;;6.13;72.21;100662.78;5107434;28;20115;-28
2022/10/19 00:42:36;;;;;;;53.85;23.25;;;;;;;6.18;72.40;100676.34;5107757;28;20046;-29
2022/10/19 00:45:10;;;;;;;55.63;23.60;;;;;;;6.16;72.10;100678.34;5107965;28;20024;-29
2022/10/19 00:47:35;;;;;;;53.88;23.70;;;;;;;6.22;72.42;100648.50;5107471;28;20035;-27
2022/10/19 00:50:01;;;;;;;27.30;15.95;;;;;;;6.82;72.87;100671.56;5107820;28;20028;-29
2022/10/19 00:52:28;;;;;;;23.58;15.43;;;;;;;6.99;72.49;100660.78;5089049;28;20036;-27
2022/10/19 00:54:55;;;;;;;24.17;15.25;;;;;;;6.90;73.68;100680.44;5107309;28;20023;-26
2022/10/19 00:57:22;;;;;;;27.35;16.20;;;;;;;6.96;72.93;100639.94;5107430;28;20028;-27
2022/10/19 00:59:48;;;;;;;27.92;16.10;;;;;;;7.12;71.71;100658.34;5107525;28;20027;-27
2022/10/19 01:02:13;;;;;;;25.35;15.18;;;;;;;7.01;72.29;100670.22;5107494;28;20035;-26
2022/10/19 01:04:43;;;;;;;24.35;15.25;;;;;;;7.12;72.37;100663.63;5088645;28;20084;-26
2022/10/19 01:07:08;;;;;;;27.15;15.32;;;;;;;6.61;74.03;100661.59;5107127;28;20044;-26
2022/10/19 01:09:34;;;;;;;28.70;14.30;;;;;;;6.54;71.45;100654.53;5107492;28;20080;-28
2022/10/19 01:12:18;;;;;;;32.70;17.02;;;;;;;6.10;72.53;100649.91;5107265;28;20050;-29
2022/10/19 01:15:05;;;;;;;27.17;14.20;;;;;;;6.08;72.74;100650.06;5088788;28;20030;-29
2022/10/19 01:17:55;;;;;;;30.60;14.70;;;;;;;5.52;73.90;100652.00;5088659;28;20059;-30
2022/10/19 01:20:44;;;;;;;33.25;16.60;;;;;;;5.49;72.69;100617.91;5089205;28;20031;-28
2022/10/19 01:23:28;;;;;;;30.08;15.93;;;;;;;5.97;70.90;100648.66;5088885;28;20016;-26
2022/10/19 01:26:41;;;;;;;29.73;15.82;;;;;;;5.81;72.39;100643.41;5106871;28;20066;-28
2022/10/19 01:29:21;;;;;;;34.35;16.55;;;;;;;5.86;71.77;100614.59;5004159;28;20117;-26
2022/10/19 01:31:52;;;;;;;28.88;15.93;;;;;;;6.17;72.08;100637.59;5004165;28;20529;-27
2022/10/19 01:34:31;;;;;;;34.67;17.23;;;;;;;5.97;73.24;100640.72;5053726;28;20542;-30
2022/10/19 01:37:04;;;;;;;32.20;17.80;;;;;;;5.77;73.52;100626.22;5088664;28;20541;-28
2022/10/19 01:39:35;;;;;;;32.15;16.70;;;;;;;5.63;72.86;100623.31;5088428;28;20188;-27
2022/10/19 01:42:12;;;;;;;26.58;15.02;;;;;;;5.95;72.21;100626.00;5107090;28;20028;-27
2022/10/19 01:44:58;;;;;;;30.88;17.38;;;;;;;6.25;72.16;100629.59;5106637;28;20122;-29
2022/10/19 01:47:32;;;;;;;30.77;17.35;;;;;;;6.27;72.02;100619.63;5106994;28;20031;-26
2022/10/19 01:50:05;;;;;;;26.05;15.32;;;;;;;6.32;72.55;100625.25;5106885;28;20476;-29
2022/10/19 01:52:32;;;;;;;23.98;14.40;;;;;;;6.26;71.87;100635.72;5106937;28;20030;-26
2022/10/19 01:55:00;;;;;;;22.55;13.00;;;;;;;6.44;71.50;100618.53;5106696;28;20026;-28
2022/10/19 01:57:31;;;;;;;20.50;13.80;;;;;;;6.43;70.44;100603.63;5107001;28;20031;-28
2022/10/19 01:59:57;;;;;;;20.85;14.13;;;;;;;6.46;70.68;100598.97;5091975;28;20118;-27
2022/10/19 02:02:26;;;;;;;22.30;14.07;;;;;;;6.48;70.65;100615.50;5111005;28;20111;-27
2022/10/19 02:04:54;;;;;;;21.75;12.95;;;;;;;6.19;71.27;100620.53;5109063;28;20028;-29
2022/10/19 02:07:21;;;;;;;22.30;13.25;;;;;;;6.07;72.28;100615.81;5110794;28;20035;-28
2022/10/19 02:09:47;;;;;;;22.38;13.40;;;;;;;6.20;70.96;100624.00;5110366;28;20071;-28
2022/10/19 02:12:14;;;;;;;21.98;12.85;;;;;;;5.99;71.64;100588.41;5110763;28;20050;-28
2022/10/19 02:14:43;;;;;;;20.23;13.00;;;;;;;5.88;72.95;100602.00;5091977;28;20043;-29
2022/10/19 02:17:13;;;;;;;21.45;12.65;;;;;;;5.69;72.41;100587.41;5110657;28;20503;-29
2022/10/19 02:19:38;;;;;;;21.25;13.13;;;;;;;5.94;71.51;100592.53;5110395;28;20023;-28
2022/10/19 02:22:05;;;;;;;21.67;13.57;;;;;;;5.83;71.85;100589.28;5110516;28;20031;-29
2022/10/19 02:24:30;;;;;;;26.33;14.60;;;;;;;5.88;71.93;100595.88;5110282;28;20449;-27
2022/10/19 02:26:56;;;;;;;24.15;14.95;;;;;;;5.97;71.39;100593.06;5110408;28;20035;-26
2022/10/19 02:29:21;;;;;;;21.38;14.18;;;;;;;5.84;72.07;100577.72;5110498;28;20452;-27
2022/10/19 02:31:48;;;;;;;22.75;13.35;;;;;;;5.86;71.03;100585.47;5110252;28;20381;-27
2022/10/19 02:34:13;;;;;;;18.50;12.88;;;;;;;5.88;71.70;100590.59;5110214;28;20031;-26
2022/10/19 02:36:39;;;;;;;20.83;13.52;;;;;;;5.73;70.93;100574.66;5109925;28;20517;-27
2022/10/19 02:39:05;;;;;;;30.75;17.00;;;;;;;5.92;71.08;100597.19;5091644;28;20055;-28
2022/10/19 02:41:47;;;;;;;30.25;15.75;;;;;;;5.72;71.23;100578.28;5110139;28;20487;-28
2022/10/19 02:44:23;;;;;;;26.67;14.88;;;;;;;5.58;72.47;100567.44;5110238;28;20035;-26
2022/10/19 02:46:55;;;;;;;24.92;14.25;;;;;;;5.54;71.91;100562.69;5091496;28;20028;-26
2022/10/19 02:49:21;;;;;;;25.67;14.48;;;;;;;5.62;71.77;100573.22;5110088;28;20039;-28
2022/10/19 02:52:01;;;;;;;32.80;16.90;;;;;;;4.80;71.89;100592.84;5109929;28;20020;-27
2022/10/19 02:54:27;;;;;;;50.33;19.50;;;;;;;4.89;71.50;100590.19;5110135;28;20046;-26
2022/10/19 02:56:53;;;;;;;47.30;19.15;;;;;;;4.59;71.90;100584.63;5108088;28;20027;-27
2022/10/19 02:59:18;;;;;;;39.33;15.93;;;;;;;4.93;69.51;100588.88;5109706;28;20031;-27
2022/10/19 03:01:43;;;;;;;35.95;15.25;;;;;;;4.53;71.12;100575.53;5109598;28;20086;-27
2022/10/19 03:04:09;;;;;;;32.60;17.17;;;;;;;4.52;71.97;100575.72;5109983;28;20030;-28
2022/10/19 03:06:34;;;;;;;34.80;16.80;;;;;;;4.40;72.02;100554.09;5109054;28;20031;-27
2022/10/19 03:09:00;;;;;;;31.35;15.75;;;;;;;4.34;72.32;100573.25;5109406;28;20023;-30
2022/10/19 03:11:25;;;;;;;34.25;15.82;;;;;;;4.25;73.68;100580.38;5109507;28;20503;-27
2022/10/19 03:13:51;;;;;;;36.40;17.58;;;;;;;4.54;72.58;100585.13;5109641;28;20039;-27
2022/10/19 03:16:16;;;;;;;35.75;18.40;;;;;;;4.88;70.53;100573.50;5109310;28;20384;-27
2022/10/19 03:18:41;;;;;;;40.13;16.92;;;;;;;4.79;71.50;100562.13;5108974;28;20403;-26
2022/10/19 03:21:12;;;;;;;36.85;17.55;;;;;;;4.80;71.88;100547.94;5109617;28;20035;-27
2022/10/19 03:23:37;;;;;;;31.88;16.90;;;;;;;5.16;71.08;100571.25;5109403;28;20023;-28
2022/10/19 03:26:04;;;;;;;30.00;14.85;;;;;;;5.12;70.84;100569.97;5109404;28;20028;-27
2022/10/19 03:28:31;;;;;;;36.75;17.02;;;;;;;4.72;72.53;100573.53;5090789;28;20059;-31
2022/10/19 03:30:56;;;;;;;34.28;16.88;;;;;;;4.68;72.82;100561.66;5108749;28;20028;-28
2022/10/19 03:33:23;;;;;;;29.15;14.45;;;;;;;4.88;72.18;100567.38;5109099;28;20097;-27
2022/10/19 03:35:48;;;;;;;26.85;13.80;;;;;;;5.00;71.54;100561.56;5109161;28;20063;-29
2022/10/19 03:38:13;;;;;;;25.25;14.77;;;;;;;5.17;71.19;100551.78;5090376;28;20109;-27
2022/10/19 03:40:39;;;;;;;28.27;14.23;;;;;;;5.09;70.22;100543.88;5108585;28;20051;-27
2022/10/19 03:43:05;;;;;;;25.58;15.10;;;;;;;4.86;72.70;100554.34;5108919;28;20027;-27
2022/10/19 03:45:30;;;;;;;30.20;14.55;;;;;;;4.92;71.93;100550.19;5108631;28;20019;-26
2022/10/19 03:47:55;;;;;;;24.80;14.73;;;;;;;4.79;72.18;100548.91;5109108;28;20122;-30
2022/10/19 03:50:21;;;;;;;23.30;13.63;;;;;;;4.81;72.77;100533.72;5109199;28;20104;-29
2022/10/19 03:52:48;;;;;;;24.10;13.63;;;;;;;4.57;73.38;100517.94;5089945;28;20122;-27
2022/10/19 03:55:15;;;;;;;20.55;14.32;;;;;;;4.96;71.78;100543.59;5090353;28;20049;-29
2022/10/19 03:57:41;;;;;;;22.70;13.27;;;;;;;5.02;71.19;100519.09;5108441;28;20035;-27
2022/10/19 04:00:08;;;;;;;24.15;13.63;;;;;;;5.13;71.79;100545.19;5089917;28;20120;-28
2022/10/19 04:02:33;;;;;;;26.58;14.75;;;;;;;5.28;71.01;100537.34;5108266;28;20023;-32
2022/10/19 04:04:58;;;;;;;22.35;15.13;;;;;;;5.17;71.25;100530.63;5109204;28;20152;-27
2022/10/19 04:07:24;;;;;;;24.92;14.77;;;;;;;5.02;71.58;100521.75;5089998;28;20173;-30
2022/10/19 04:09:49;;;;;;;25.98;14.30;;;;;;;4.92;70.76;100510.56;5108330;28;20020;-28
2022/10/19 04:12:15;;;;;;;21.20;14.13;;;;;;;4.95;71.59;100526.91;5090047;28;20177;-26
2022/10/19 04:14:40;;;;;;;26.52;15.00;;;;;;;5.05;70.48;100521.44;5107990;28;20192;-27
2022/10/19 04:17:06;;;;;;;24.10;15.30;;;;;;;4.87;72.00;100523.47;5090104;28;20031;-26
2022/10/19 04:19:31;;;;;;;26.55;14.68;;;;;;;4.79;71.83;100506.63;5108189;28;20023;-28
2022/10/19 04:21:58;;;;;;;30.15;14.95;;;;;;;4.75;71.86;100505.31;5107639;28;20043;-27
2022/10/19 04:24:23;;;;;;;28.20;15.27;;;;;;;4.79;71.91;100527.78;5108191;28;20140;-26
2022/10/19 04:26:51;;;;;;;25.58;14.32;;;;;;;4.86;71.72;100521.81;5107963;28;20259;-26
2022/10/19 04:29:19;;;;;;;78.90;32.40;;;;;;;4.62;72.71;100521.72;5107914;28;20492;-27
2022/10/19 04:31:45;;;;;;;57.30;23.50;;;;;;;4.47;72.48;100502.25;5089768;28;20023;-28
2022/10/19 04:34:11;;;;;;;58.95;27.20;;;;;;;4.59;72.13;100518.59;5089624;28;20031;-28
2022/10/19 04:36:36;;;;;;;34.13;17.70;;;;;;;3.67;73.82;100526.69;5108144;28;20097;-28
2022/10/19 04:39:03;;;;;;;39.22;19.27;;;;;;;3.25;73.80;100524.09;5089334;28;20044;-30
2022/10/19 04:41:29;;;;;;;45.35;21.25;;;;;;;2.93;74.78;100508.03;5089191;28;20024;-26
2022/10/19 04:43:57;;;;;;;42.88;21.60;;;;;;;3.27;73.97;100522.97;5107752;28;20031;-27
2022/10/19 04:46:22;;;;;;;29.73;16.42;;;;;;;3.37;72.33;100536.00;5107869;28;20028;-27
2022/10/19 04:48:48;;;;;;;34.80;16.95;;;;;;;3.51;71.79;100522.19;5107594;28;20171;-31
2022/10/19 04:51:15;;;;;;;35.22;17.02;;;;;;;3.81;71.36;100527.88;5107671;28;20099;-32
2022/10/19 04:53:41;;;;;;;48.13;21.15;;;;;;;4.22;70.63;100519.97;5107881;28;20031;-27
2022/10/19 04:56:10;;;;;;;47.03;22.95;;;;;;;4.01;71.96;100492.25;5106206;28;20035;-28
2022/10/19 04:58:36;;;;;;;62.75;26.30;;;;;;;4.17;71.82;100480.06;5107238;28;20032;-30
2022/10/19 05:01:07;;;;;;;57.53;23.35;;;;;;;4.46;71.87;100510.38;5107827;28;20039;-25
2022/10/19 05:03:33;;;;;;;49.28;23.70;;;;;;;4.57;71.47;100494.16;5107706;28;20130;-28
2022/10/19 05:05:58;;;;;;;62.13;25.75;;;;;;;4.59;71.75;100485.06;5107467;28;20114;-26
2022/10/19 05:08:24;;;;;;;40.05;19.42;;;;;;;4.86;72.71;100498.03;5107359;28;20465;-30
2022/10/19 05:10:49;;;;;;;31.25;17.55;;;;;;;4.94;72.69;100501.47;5088494;28;20035;-27
2022/10/19 05:13:14;;;;;;;31.77;16.95;;;;;;;5.05;72.48;100497.63;5107396;28;20034;-27
2022/10/19 05:15:40;;;;;;;28.88;15.95;;;;;;;5.17;72.35;100512.13;5107765;28;20054;-29
2022/10/19 05:18:05;;;;;;;52.92;25.23;;;;;;;5.07;73.34;100514.16;5107124;28;20027;-28
2022/10/19 05:20:31;;;;;;;59.40;26.10;;;;;;;5.22;72.47;100496.53;5088812;28;20030;-27
2022/10/19 05:22:56;;;;;;;42.92;20.40;;;;;;;5.11;72.55;100512.81;5106790;28;20043;-27
2022/10/19 05:25:22;;;;;;;76.47;29.33;;;;;;;5.17;72.32;100492.75;5107004;28;20081;-30
2022/10/19 05:27:51;;;;;;;73.30;29.73;;;;;;;5.44;72.41;100515.28;5107013;28;20147;-29
2022/10/19 05:30:18;;;;;;;35.00;19.58;;;;;;;5.08;72.82;100526.34;5107020;28;20051;-27
2022/10/19 05:32:43;;;;;;;34.33;20.65;;;;;;;5.47;71.46;100514.91;5107141;28;20058;-28
2022/10/19 05:35:09;;;;;;;34.03;18.60;;;;;;;5.54;70.93;100526.47;5110910;28;20027;-30
2022/10/19 05:37:34;;;;;;;27.98;15.38;;;;;;;5.52;70.96;100523.16;5111775;28;20176;-29
2022/10/19 05:40:00;;;;;;;29.13;16.83;;;;;;;5.22;72.57;100504.47;5110887;28;20122;-28
2022/10/19 05:42:25;;;;;;;29.17;17.10;;;;;;;5.69;71.50;100525.72;5111403;28;20427;-27
2022/10/19 05:44:50;;;;;;;21.88;14.65;;;;;;;5.95;71.36;100534.16;5110860;28;20031;-32
2022/10/19 05:47:16;;;;;;;19.10;12.10;;;;;;;5.61;71.42;100527.41;5092813;28;20040;-30
2022/10/19 05:49:41;;;;;;;19.17;11.95;;;;;;;5.73;71.67;100519.88;5111118;28;20480;-27
2022/10/19 05:52:07;;;;;;;20.63;12.10;;;;;;;5.69;71.00;100507.19;5109409;28;20019;-29
2022/10/19 05:54:34;;;;;;;21.48;12.15;;;;;;;5.92;71.15;100534.47;5092310;28;20042;-31
2022/10/19 05:57:01;;;;;;;18.10;11.63;;;;;;;5.97;69.62;100516.28;5110628;28;20028;-29
2022/10/19 05:59:26;;;;;;;23.58;12.35;;;;;;;6.12;70.17;100534.03;5111013;28;20035;-27
2022/10/19 06:01:52;;;;;;;19.52;11.80;;;;;;;6.31;69.70;100524.75;5110870;28;20023;-31
2022/10/19 06:04:18;;;;;;;19.38;11.68;;;;;;;6.39;69.45;100520.19;5110720;28;20088;-26
2022/10/19 06:06:44;;;;;;;21.38;12.30;;;;;;;6.26;70.39;100504.13;5110450;28;20035;-32
2022/10/19 06:09:10;;;;;;;17.27;11.70;;;;;;;6.38;70.40;100501.84;5109226;28;20066;-27
2022/10/19 06:11:38;;;;;;;20.27;11.55;;;;;;;6.68;69.41;100497.41;5092116;28;20461;-26
2022/10/19 06:14:07;;;;;;;18.80;11.52;;;;;;;6.74;69.53;100512.59;5110638;28;20042;-28
2022/10/19 06:16:33;;;;;;;21.70;12.05;;;;;;;6.81;69.54;100500.22;5111005;28;20051;-27
2022/10/19 06:18:59;;;;;;;17.73;10.30;;;;;;;7.19;68.13;100521.34;5110680;28;20067;-26
2022/10/19 06:21:28;;;;;;;18.95;10.52;;;;;;;7.21;68.44;100514.00;5110644;28;20156;-30
2022/10/19 06:23:56;;;;;;;19.42;11.93;;;;;;;7.35;69.15;100508.84;5110088;28;20031;-26
2022/10/19 06:26:22;;;;;;;19.27;11.43;;;;;;;7.63;68.99;100523.03;5110567;28;20023;-28
2022/10/19 06:28:48;;;;;;;16.70;10.82;;;;;;;7.95;67.60;100520.91;5110407;28;20048;-32
2022/10/19 06:31:15;;;;;;;18.90;11.00;;;;;;;7.92;68.23;100520.47;5091763;28;20127;-28
2022/10/19 06:33:43;;;;;;;16.05;9.73;;;;;;;8.03;67.33;100523.44;5110194;28;20558;-28
2022/10/19 06:36:12;;;;;;;15.77;9.75;;;;;;;7.84;67.94;100524.06;5109854;28;20068;-27
2022/10/19 06:38:39;;;;;;;17.08;10.52;;;;;;;8.03;67.55;100526.09;5110005;28;20048;-29
2022/10/19 06:41:04;;;;;;;15.48;10.43;;;;;;;8.22;68.22;100511.31;5110362;28;20027;-29
2022/10/19 06:43:30;;;;;;;14.93;10.10;;;;;;;8.26;67.90;100495.81;5091653;28;20087;-27
2022/10/19 06:45:55;;;;;;;14.70;10.13;;;;;;;8.39;66.98;100498.56;5109423;28;20030;-27
2022/10/19 06:48:21;;;;;;;16.10;9.73;;;;;;;8.63;66.51;100485.88;5110267;28;20040;-28
2022/10/19 06:50:54;;;;;;;18.13;9.27;;;;;;;9.11;65.94;100509.03;5109484;28;20118;-28
2022/10/19 06:53:20;;;;;;;15.30;9.43;;;;;;;9.17;66.30;100490.41;5110300;28;20039;-27
2022/10/19 06:55:45;;;;;;;12.70;8.35;;;;;;;9.52;65.61;100511.66;5110197;28;20031;-27
2022/10/19 06:58:10;;;;;;;13.90;8.15;;;;;;;9.79;64.24;100507.19;5109791;28;20035;-28
2022/10/19 07:00:36;;;;;;;14.18;8.18;;;;;;;9.54;63.83;100506.94;5109473;28;20028;-30
2022/10/19 07:03:01;;;;;;;13.18;7.43;;;;;;;9.53;63.95;100480.50;5109617;28;20079;-28
2022/10/19 07:05:27;;;;;;;11.80;7.40;;;;;;;9.94;64.09;100488.34;5109400;28;20376;-27
2022/10/19 07:07:52;;;;;;;12.10;7.53;;;;;;;10.20;62.72;100503.50;5109400;28;20027;-26
2022/10/19 07:10:17;;;;;;;18.10;8.48;;;;;;;10.47;62.33;100502.72;5099133;28;20058;-28
2022/10/19 07:12:43;;;;;;;13.27;8.20;;;;;;;10.58;60.95;100502.06;5078719;28;20027;-30
2022/10/19 07:15:09;;;;;;;11.95;6.85;;;;;;;10.58;60.61;100499.41;5097461;28;20041;-31
2022/10/19 07:17:34;;;;;;;13.50;6.68;;;;;;;10.67;61.63;100482.16;5080164;28;20476;-29
2022/10/19 07:20:00;;;;;;;10.55;6.38;;;;;;;11.07;58.69;100498.03;5081713;28;20114;-28
2022/10/19 07:22:26;;;;;;;10.30;6.90;;;;;;;11.17;58.99;100477.03;5097416;28;20055;-31
2022/10/19 07:24:51;;;;;;;8.23;6.07;;;;;;;11.36;58.11;100491.34;5096789;28;20487;-27
2022/10/19 07:27:17;;;;;;;12.25;5.95;;;;;;;11.43;56.95;100469.94;5096737;28;20032;-28
2022/10/19 07:29:42;;;;;;;12.75;7.40;;;;;;;11.67;55.09;100465.69;5080652;28;20025;-27
2022/10/19 07:32:08;;;;;;;9.25;5.25;;;;;;;11.82;55.49;100487.53;5099099;28;20012;-29
2022/10/19 07:34:33;;;;;;;12.30;6.50;;;;;;;12.02;54.25;100463.38;5096129;28;20019;-29
2022/10/19 07:36:58;;;;;;;10.85;5.25;;;;;;;12.27;52.76;100483.94;5097750;28;20092;-29
2022/10/19 07:39:24;;;;;;;11.20;5.30;;;;;;;12.58;51.53;100482.19;5095807;28;20102;-32
2022/10/19 07:41:49;;;;;;;10.25;5.68;;;;;;;12.58;51.57;100466.94;5096516;28;20026;-29
2022/10/19 07:44:15;;;;;;;8.80;5.25;;;;;;;12.58;50.96;100463.47;5099181;28;20797;-27
2022/10/19 07:46:40;;;;;;;8.73;5.25;;;;;;;12.90;49.83;100474.03;5089730;28;20171;-27
2022/10/19 07:49:10;;;;;;;13.65;5.13;;;;;;;13.07;48.47;100458.97;5108637;28;20494;-27
2022/10/19 07:51:36;;;;;;;9.20;4.95;;;;;;;13.21;48.35;100464.97;5099059;28;20028;-29
2022/10/19 07:54:03;;;;;;;7.93;4.60;;;;;;;13.45;47.92;100468.59;5088436;28;20138;-28
2022/10/19 07:56:28;;;;;;;8.70;4.45;;;;;;;13.63;47.00;100457.00;5086871;28;20881;-28
2022/10/19 07:58:55;;;;;;;9.15;4.72;;;;;;;13.58;46.68;100443.47;5069272;28;20036;-26
2022/10/19 08:01:23;;;;;;;8.45;4.50;;;;;;;13.88;46.48;100459.50;5087602;28;20381;-32
2022/10/19 08:03:51;;;;;;;8.38;4.65;;;;;;;14.04;44.11;100448.09;5087395;28;20487;-28
2022/10/19 08:06:18;;;;;;;9.27;5.35;;;;;;;14.34;44.85;100447.16;5087582;28;20111;-28
2022/10/19 08:08:47;;;;;;;9.00;5.07;;;;;;;14.69;43.46;100454.41;5087476;28;20043;-28
2022/10/19 08:11:22;;;;;;;7.43;4.47;;;;;;;14.44;43.87;100430.47;5087528;28;20168;-31
2022/10/19 08:13:47;;;;;;;9.15;4.20;;;;;;;14.23;43.75;100432.69;5087489;28;20089;-28
2022/10/19 08:16:35;;;;;;;7.57;4.80;;;;;;;14.77;45.19;100443.28;5087572;28;20032;-30
2022/10/19 08:19:05;;;;;;;7.80;4.18;;;;;;;15.06;44.30;100443.31;5069212;28;20097;-27
2022/10/19 08:21:31;;;;;;;10.63;4.63;;;;;;;15.22;44.17;100415.69;5068550;28;20524;-29
2022/10/19 08:23:57;;;;;;;9.77;4.88;;;;;;;15.18;43.76;100419.06;5087562;28;20506;-27
2022/10/19 08:26:22;;;;;;;9.50;4.38;;;;;;;15.38;43.13;100429.38;5087468;28;20485;-27
2022/10/19 08:28:48;;;;;;;9.10;4.80;;;;;;;15.53;43.48;100431.50;5087013;28;20400;-30
2022/10/19 08:31:17;;;;;;;10.50;4.32;;;;;;;15.66;43.48;100432.03;5087157;28;20502;-29
2022/10/19 08:33:43;;;;;;;6.97;3.85;;;;;;;15.61;43.33;100429.25;5087407;28;20039;-29
2022/10/19 08:36:10;;;;;;;11.18;4.43;;;;;;;15.72;44.92;100418.69;5087535;28;20032;-28
2022/10/19 08:38:36;;;;;;;7.78;3.83;;;;;;;15.98;45.62;100422.63;5086629;28;20056;-29
2022/10/19 08:41:17;;;;;;;7.70;4.40;;;;;;;16.36;43.61;100418.31;5087089;28;20036;-26
2022/10/19 08:43:52;;;;;;;10.32;3.85;;;;;;;16.23;46.83;100403.34;5087257;28;20032;-29
2022/10/19 08:46:50;;;;;;;7.90;4.70;;;;;;;15.95;46.68;100409.66;5087179;28;20032;-28
2022/10/19 08:49:20;;;;;;;10.27;4.07;;;;;;;16.15;48.07;100404.56;5087059;28;20042;-30
2022/10/19 08:51:53;;;;;;;9.35;4.10;;;;;;;16.33;46.78;100392.72;5086758;28;20024;-29
2022/10/19 08:54:19;;;;;;;9.45;4.10;;;;;;;16.51;43.39;100394.28;5087029;28;20024;-28
2022/10/19 08:56:58;;;;;;;6.45;4.05;;;;;;;16.53;44.76;100396.72;5086671;28;20038;-30
2022/10/19 08:59:45;;;;;;;10.75;4.18;;;;;;;16.28;45.21;100379.16;5087066;28;20039;-28
2022/10/19 09:02:28;;;;;;;8.70;4.00;;;;;;;16.32;46.44;100377.59;5086469;28;20035;-27
2022/10/19 09:05:02;;;;;;;8.30;3.63;;;;;;;16.58;46.04;100373.34;5086742;28;20506;-28
2022/10/19 09:07:48;;;;;;;9.13;3.72;;;;;;;16.71;46.34;100366.78;5068267;28;20505;-27
2022/10/19 09:10:14;;;;;;;8.70;3.67;;;;;;;17.05;46.20;100378.22;5086776;28;20031;-27
2022/10/19 09:12:49;;;;;;;7.47;3.78;;;;;;;17.21;45.87;100376.50;5084816;28;20032;-28
2022/10/19 09:15:19;;;;;;;9.10;3.72;;;;;;;17.32;46.45;100377.38;5068643;28;20032;-29
2022/10/19 09:17:45;;;;;;;6.97;4.00;;;;;;;17.11;46.10;100373.69;5086612;28;20486;-28
2022/10/19 09:20:20;;;;;;;7.82;3.72;;;;;;;17.71;45.29;100377.16;5086507;28;20023;-27
2022/10/19 09:23:00;;;;;;;8.25;3.38;;;;;;;17.68;46.10;100367.72;5068095;28;20050;-28
2022/10/19 09:25:28;;;;;;;7.90;4.05;;;;;;;17.74;44.42;100363.19;5086931;28;20020;-28
2022/10/19 09:28:00;;;;;;;;;;;;;;;18.09;44.24;100369.91;5086939;28;20028;-29
2022/10/19 09:30:29;;;;;;;6.88;3.42;;;;;;;17.98;45.32;100366.34;5084840;28;19918;-31
2022/10/19 09:33:04;;;;;;;6.55;3.75;;;;;;;18.27;44.44;100361.34;5086052;28;20024;-30
2022/10/19 09:35:37;;;;;;;8.90;4.35;;;;;;;18.34;43.23;100361.13;5086698;28;20462;-28
2022/10/19 09:38:06;;;;;;;8.18;4.00;;;;;;;18.42;43.37;100347.09;5068117;28;20066;-28
2022/10/19 09:40:33;;;;;;;10.68;3.63;;;;;;;18.52;42.68;100329.31;5067934;28;20024;-28
2022/10/19 09:43:07;;;;;;;10.20;4.13;;;;;;;18.80;40.74;100342.41;5086494;28;20634;-29
2022/10/19 09:45:42;;;;;;;7.40;3.38;;;;;;;19.23;40.62;100348.41;5086464;28;20089;-28
2022/10/19 09:48:25;;;;;;;6.57;3.80;;;;;;;19.27;40.65;100341.38;5086183;28;20575;-28
2022/10/19 09:50:56;;;;;;;13.20;3.88;;;;;;;19.57;39.37;100339.72;5067853;28;20032;-27
2022/10/19 09:53:23;;;;;;;6.80;3.55;;;;;;;19.65;40.20;100339.19;5086366;28;20080;-28
2022/10/19 09:56:03;;;;;;;6.10;3.58;;;;;;;19.80;38.74;100315.94;5067933;28;20434;-28
2022/10/19 09:58:29;;;;;;;8.07;3.42;;;;;;;19.78;40.58;100327.03;5086082;28;20119;-31
2022/10/19 10:00:56;;;;;;;6.60;3.55;;;;;;;19.66;38.19;100297.53;5085864;28;20103;-28
2022/10/19 10:03:42;;;;;;;8.40;4.13;;;;;;;20.42;37.63;100327.38;5068001;28;20032;-29
2022/10/19 10:06:15;;;;;;;7.97;4.55;;;;;;;20.84;36.54;100318.78;5086038;28;20036;-28
2022/10/19 10:08:47;;;;;;;9.73;5.60;;;;;;;20.93;36.26;100310.84;5085821;28;20028;-28
2022/10/19 10:11:33;;;;;;;7.93;5.20;;;;;;;20.91;35.57;100295.97;5067558;28;20028;-28
2022/10/19 10:14:06;;;;;;;10.45;5.30;;;;;;;20.98;36.46;100307.28;5086116;28;20090;-28
2022/10/19 10:16:34;;;;;;;11.25;6.20;;;;;;;21.40;35.84;100297.72;5067685;28;20059;-27
2022/10/19 10:19:11;;;;;;;11.60;6.82;;;;;;;21.64;34.81;100309.47;5067566;28;20060;-30
2022/10/19 10:21:49;;;;;;;14.93;7.10;;;;;;;21.51;35.31;100274.84;5089784;28;20411;-31
2022/10/19 10:24:15;;;;;;;;;;;;;;;22.02;33.91;100287.84;5072036;28;20173;-27
2022/10/19 10:26:48;;;;;;;12.10;6.50;;;;;;;22.37;33.74;100288.56;5089503;28;19916;-28
2022/10/19 10:29:25;;;;;;;12.80;8.70;;;;;;;22.16;33.21;100265.44;5089546;28;20137;-32
2022/10/19 10:32:04;;;;;;;15.20;10.45;;;;;;;22.39;32.13;100270.06;5089667;28;20035;-29
2022/10/19 10:34:35;;;;;;;13.35;10.40;;;;;;;22.66;32.07;100274.03;5071299;28;20029;-29
2022/10/19 10:37:04;;;;;;;14.82;10.57;;;;;;;22.60;31.55;100258.91;5071477;28;20044;-28
2022/10/19 10:39:30;;;;;;;13.77;10.20;;;;;;;22.48;33.10;100272.13;5089497;28;20052;-28
2022/10/19 10:42:03;;;;;;;17.05;10.90;;;;;;;22.31;32.21;100261.72;5089409;28;20043;-29
2022/10/19 10:44:30;;;;;;;16.48;11.43;;;;;;;22.15;31.95;100247.50;5089573;28;20036;-33
2022/10/19 10:46:59;;;;;;;18.13;14.02;;;;;;;22.45;30.95;100255.31;5089245;28;20106;-28
2022/10/19 10:49:32;;;;;;;21.42;18.30;;;;;;;22.66;29.09;100246.84;5089360;28;20035;-29
2022/10/19 10:52:08;;;;;;;22.27;16.38;;;;;;;22.42;30.88;100242.28;5089231;28;20591;-29
2022/10/19 10:54:34;;;;;;;23.38;18.83;;;;;;;22.41;29.44;100235.25;5088945;28;20058;-30
2022/10/19 10:57:15;;;;;;;22.55;19.60;;;;;;;22.73;29.33;100227.44;5088971;28;20024;-27
2022/10/19 10:59:55;;;;;;;23.10;19.70;;;;;;;22.54;30.56;100228.25;5087434;28;20028;-29
2022/10/19 11:02:24;;;;;;;23.00;19.98;;;;;;;22.79;30.02;100229.75;5089032;28;20035;-31
2022/10/19 11:05:05;;;;;;;23.90;21.02;;;;;;;22.95;31.11;100226.81;5088463;28;20028;-28
2022/10/19 11:07:33;;;;;;;28.83;22.05;;;;;;;22.98;29.64;100215.31;5070893;28;20035;-28
2022/10/19 11:10:08;;;;;;;25.67;21.42;;;;;;;22.96;28.90;100225.69;5088919;28;20056;-28
2022/10/19 11:12:50;;;;;;;23.00;19.05;;;;;;;23.53;29.10;100214.63;5070403;28;20025;-34
2022/10/19 11:15:22;;;;;;;23.27;18.70;;;;;;;23.24;28.15;100218.44;5088843;28;20539;-28
2022/10/19 11:18:40;;;;;;;16.77;13.95;;;;;;;23.46;28.62;100217.75;5088773;28;20559;-31
2022/10/19 11:21:29;;;;;;;17.48;14.00;;;;;;;23.07;29.30;100224.47;5054363;28;20412;-28
2022/10/19 11:24:51;;;;;;;14.40;10.27;;;;;;;23.39;27.58;100217.34;5088469;28;20553;-30
2022/10/19 11:27:41;;;;;;;11.90;7.57;;;;;;;23.13;28.38;100212.38;5005832;28;20042;-29
2022/10/19 11:30:08;;;;;;;14.52;6.53;;;;;;;22.82;28.23;100209.31;5005206;28;20060;-28